Salida, CO

7:01 PM MDT on October 16, 2017 (GMT -0600)
Salida

Weather History for KANK - August, 2013

Change the Weather History Date:

Monday, August 19, 2013

  Actual Average (KGUC) Record (KGUC)
Temperature  
Mean Temperature 69 °F -  
Max Temperature 88 °F 73 °F 82 °F (2001)
Min Temperature 50 °F 42 °F 39 °F (1997)
Cooling Degree Days 4    
Growing Degree Days 19 (Base 50)    
Moisture  
Dew Point 40 °F    
Average Humidity 40    
Maximum Humidity 73    
Minimum Humidity 13    
Precipitation  
Precipitation 0.00 in - - ()
Sea Level Pressure  
Sea Level Pressure 30.42 in    
Wind  
Wind Speed 5 mph (NW)    
Max Wind Speed 17 mph    
Max Gust Speed 29 mph    
Visibility 10 miles    
Events      
Averages and records for this station are not official NWS values.
T = Trace of Precipitation, MM = Missing Value Source: NWS Daily Summary

Daily Weather History Graph

Daily Weather History Graph

Search for Another Location

Airport or City:

Trip Planner

Search our weather history database for the weather conditions in past years. The results will help you decide how hot, cold, wet, or windy it might be!

Date:

Astronomy

Aug. 19, 2013 Rise Set
Actual Time 6:22 AM MDT 7:52 PM MDT
Civil Twilight 5:54 AM MDT 8:20 PM MDT
Nautical Twilight 5:20 AM MDT 8:53 PM MDT
Astronomical Twilight 4:45 AM MDT 9:29 PM MDT
Moon 6:45 PM MDT (8/19) 4:44 AM MDT (8/19)
Length of Visible Light 14h 26m
Length of Day
13h 30m
Waxing Gibbous, 97% of the Moon is Illuminated
Aug 19
Waxing Gibbous
Aug 20
Full
Aug 28
Last Quarter
Sep 5
New
Sep 12
First Quarter

Hourly Weather History & Observations

Time (MDT) Temp. Dew Point Humidity Pressure Visibility Wind Dir Wind Speed Gust Speed Precip Events Conditions
12:15 AM 57.6 °F 43.7 °F 60% 30.49 in 10.0 mi WNW 5.8 mph - N/A   Clear
12:35 AM 56.7 °F 43.5 °F 61% 30.49 in 10.0 mi West 6.9 mph - N/A   Mostly Cloudy
12:55 AM 57.0 °F 43.0 °F 59% 30.48 in 10.0 mi West 3.5 mph - N/A   Scattered Clouds
1:15 AM 57.0 °F 43.0 °F 59% 30.48 in 10.0 mi Calm Calm - N/A   Clear
1:35 AM 57.2 °F 43.3 °F 60% 30.48 in 10.0 mi West 3.5 mph - N/A   Clear
1:55 AM 56.5 °F 43.9 °F 63% 30.48 in 10.0 mi WSW 4.6 mph - N/A   Clear
2:35 AM 56.3 °F 43.3 °F 62% 30.47 in 10.0 mi West 3.5 mph - N/A   Clear
2:55 AM 55.4 °F 42.8 °F 63% 30.47 in 10.0 mi WSW 9.2 mph - N/A   Clear
3:15 AM 54.9 °F 43.0 °F 64% 30.46 in 10.0 mi West 6.9 mph - N/A   Clear
3:35 AM 56.5 °F 45.5 °F 67% 30.46 in 10.0 mi WNW 8.1 mph - N/A   Clear
3:55 AM 57.7 °F 45.3 °F 63% 30.46 in 10.0 mi NW 6.9 mph - N/A   Clear
4:15 AM 54.7 °F 43.7 °F 66% 30.46 in 10.0 mi West 6.9 mph - N/A   Clear
4:35 AM 52.5 °F 42.1 °F 68% 30.45 in 10.0 mi West 5.8 mph - N/A   Clear
4:55 AM 54.3 °F 43.2 °F 66% 30.45 in 10.0 mi WNW 3.5 mph - N/A   Clear
5:15 AM 50.4 °F 41.9 °F 73% 30.45 in 10.0 mi West 3.5 mph - N/A   Clear
5:35 AM 53.2 °F 43.9 °F 71% 30.46 in 10.0 mi NW 8.1 mph - N/A   Clear
5:55 AM 55.8 °F 43.7 °F 64% 30.45 in 10.0 mi WNW 9.2 mph - N/A   Clear
6:15 AM 51.8 °F 42.4 °F 70% 30.45 in 10.0 mi WSW 5.8 mph - N/A   Clear
6:35 AM 52.2 °F 42.6 °F 70% 30.46 in 10.0 mi West 8.1 mph - N/A   Clear
6:55 AM 53.6 °F 43.0 °F 67% 30.47 in 10.0 mi Calm Calm - N/A   Clear
7:15 AM 53.8 °F 43.3 °F 68% 30.47 in 10.0 mi WNW 3.5 mph - N/A   Clear
7:35 AM 57.4 °F 43.2 °F 59% 30.48 in 10.0 mi NW 3.5 mph - N/A   Clear
7:55 AM 58.1 °F 43.7 °F 59% 30.48 in 10.0 mi NNW 3.5 mph - N/A   Clear
8:15 AM 60.1 °F 43.2 °F 54% 30.48 in 10.0 mi NW 4.6 mph - N/A   Clear
8:35 AM 61.5 °F 43.5 °F 52% 30.48 in 10.0 mi NW 4.6 mph - N/A   Clear
8:55 AM 63.5 °F 42.6 °F 47% 30.47 in 10.0 mi Calm Calm - N/A   Clear
9:15 AM 65.1 °F 44.1 °F 46% 30.47 in 10.0 mi Calm Calm - N/A   Clear
9:35 AM 67.5 °F 43.3 °F 42% 30.46 in 10.0 mi Calm Calm - N/A   Clear
9:55 AM 69.8 °F 42.1 °F 37% 30.46 in 10.0 mi Calm Calm - N/A   Clear
10:15 AM 71.2 °F 41.0 °F 33% 30.45 in 10.0 mi Calm Calm - N/A   Clear
10:35 AM 73.4 °F 40.8 °F 31% 30.45 in 10.0 mi Calm Calm - N/A   Clear
10:55 AM 75.7 °F 41.7 °F 30% 30.44 in 10.0 mi West 3.5 mph - N/A   Clear
11:15 AM 77.2 °F 39.9 °F 26% 30.44 in 10.0 mi Calm Calm - N/A   Clear
11:35 AM 80.6 °F 39.7 °F 23% 30.42 in 10.0 mi NE 3.5 mph - N/A   Clear
11:55 AM 81.0 °F 38.5 °F 22% 30.41 in 10.0 mi Calm Calm - N/A   Clear
12:15 PM 83.1 °F 37.0 °F 19% 30.40 in 10.0 mi Calm Calm - N/A   Clear
12:35 PM 84.4 °F 37.9 °F 19% 30.39 in 10.0 mi South 5.8 mph - N/A   Clear
12:55 PM 86.0 °F 34.3 °F 16% 30.39 in 10.0 mi Calm Calm - N/A   Clear
1:15 PM 84.7 °F 32.5 °F 15% 30.38 in 10.0 mi North 3.5 mph - N/A   Clear
1:35 PM 88.2 °F 31.1 °F 13% 30.37 in 10.0 mi SE 6.9 mph - N/A   Clear
1:55 PM 87.8 °F 30.0 °F 13% 30.37 in 10.0 mi SE 5.8 mph - N/A   Scattered Clouds
2:15 PM 88.5 °F 30.6 °F 13% 30.35 in 10.0 mi SSE 6.9 mph - N/A   Clear
2:35 PM 88.0 °F 30.6 °F 13% 30.35 in 10.0 mi North 4.6 mph - N/A   Scattered Clouds
2:55 PM 88.2 °F 31.5 °F 13% 30.35 in 10.0 mi NE 15.0 mph 19.6 mph N/A   Mostly Cloudy
3:15 PM 85.1 °F 32.7 °F 15% 30.35 in 10.0 mi East 16.1 mph 25.3 mph N/A   Mostly Cloudy
3:35 PM 85.5 °F 33.8 °F 16% 30.35 in 10.0 mi East 16.1 mph 28.8 mph N/A   Scattered Clouds
3:55 PM 84.2 °F 36.1 °F 18% 30.35 in 10.0 mi ESE 17.3 mph 25.3 mph N/A   Scattered Clouds
4:15 PM 80.8 °F 37.6 °F 21% 30.35 in 10.0 mi ESE 15.0 mph 26.5 mph N/A   Scattered Clouds
4:35 PM 79.7 °F 37.8 °F 22% 30.35 in 10.0 mi ESE 15.0 mph 25.3 mph N/A   Scattered Clouds
4:55 PM 79.2 °F 37.9 °F 23% 30.35 in 10.0 mi ESE 16.1 mph 24.2 mph N/A   Clear
5:15 PM 78.8 °F 38.5 °F 24% 30.36 in 10.0 mi ESE 13.8 mph 23.0 mph N/A   Clear
5:35 PM 78.8 °F 37.4 °F 23% 30.35 in 10.0 mi ESE 9.2 mph 18.4 mph N/A   Clear
5:55 PM 78.1 °F 37.8 °F 23% 30.35 in 10.0 mi ESE 6.9 mph - N/A   Scattered Clouds
6:15 PM 77.7 °F 37.8 °F 24% 30.35 in 10.0 mi ENE 5.8 mph - N/A   Mostly Cloudy
6:35 PM 78.8 °F 38.8 °F 24% 30.35 in 10.0 mi NE 4.6 mph - N/A   Overcast
6:55 PM 78.1 °F 37.9 °F 24% 30.35 in 10.0 mi North 5.8 mph - N/A   Scattered Clouds
7:15 PM 77.4 °F 37.0 °F 23% 30.35 in 10.0 mi NE 3.5 mph - N/A   Clear
7:35 PM 76.8 °F 36.9 °F 24% 30.36 in 10.0 mi Calm Calm - N/A   Clear
7:55 PM 75.9 °F 37.8 °F 25% 30.37 in 10.0 mi SSE 3.5 mph - N/A   Mostly Cloudy
8:15 PM 76.3 °F 37.2 °F 24% 30.38 in 10.0 mi Calm Calm - N/A   Mostly Cloudy
8:35 PM 76.1 °F 37.4 °F 25% 30.39 in 10.0 mi Calm Calm - N/A   Scattered Clouds
8:55 PM 75.0 °F 37.9 °F 26% 30.40 in 10.0 mi NNW 3.5 mph - N/A   Mostly Cloudy
9:15 PM 74.7 °F 38.5 °F 27% 30.42 in 10.0 mi NNW 12.7 mph 18.4 mph N/A   Overcast
9:35 PM 72.5 °F 41.9 °F 33% 30.43 in 10.0 mi NNW 9.2 mph 18.4 mph N/A   Overcast
9:55 PM 71.6 °F 43.0 °F 36% 30.44 in 10.0 mi NNW 15.0 mph - N/A   Mostly Cloudy
10:15 PM 70.9 °F 43.5 °F 37% 30.44 in 10.0 mi NNW 8.1 mph - N/A   Overcast
10:35 PM 70.7 °F 42.8 °F 36% 30.45 in 10.0 mi NW 8.1 mph - N/A   Scattered Clouds
10:55 PM 68.4 °F 44.1 °F 41% 30.45 in 10.0 mi NW 4.6 mph - N/A   Scattered Clouds
11:15 PM 66.9 °F 43.9 °F 43% 30.45 in 10.0 mi SW 4.6 mph - N/A   Clear
11:35 PM 64.8 °F 44.1 °F 47% 30.44 in 10.0 mi WSW 4.6 mph - N/A   Clear
11:55 PM 64.6 °F 44.6 °F 48% 30.44 in 10.0 mi West 6.9 mph - N/A   Clear